Have a Safe July 4th! 

Flight Track Log - Related Links

Times and Time Zones

All times are in EDT time to prevent confusion due to time zone crossing. See the USC110 flight status page for this flight to view local times or setup timezone preferences in your user account.

Time Position Orientation Groundspeed Altitude Reporting Facility
EDT Latitude Longitude Course Direction KTS MPH feet Rate Location/Type
Sun 06:06:57 PM 33.8167 -84.5167 90° East 120 138 3,800  Level Atlanta TRACON
Sun 06:07:57 PM 33.8167 -84.4833 90° East 126 145 4,700 600 Climbing Atlanta TRACON
Sun 06:08:57 PM 33.8333 -84.4333 68° East 159 183 5,000 150 Climbing Atlanta TRACON
Sun 06:09:57 PM 33.8333 -84.3667 90° East 172 198 5,000  Level Atlanta TRACON
Sun 06:10:57 PM 33.8333 -84.3167 90° East 168 193 5,000  Level Atlanta TRACON
Sun 06:11:00 PM 33.8142 -84.1939 84° East  Level FlightAware Approximate
Sun 06:12:03 PM 33.8500 -84.2500 73° East 168 193 5,000  Level Atlanta TRACON
Sun 06:12:58 PM 33.8500 -84.2000 90° East 166 191 5,000  Level Atlanta TRACON
Sun 06:14:03 PM 33.8667 -84.1500 68° East 173 199 5,000  Level Atlanta TRACON
Sun 06:14:58 PM 33.8667 -84.1000 90° East 162 186 5,000  Level Atlanta TRACON
Sun 06:16:03 PM 33.8667 -84.0333 90° East 165 190 5,000  Level Atlanta TRACON
Sun 06:16:58 PM 33.8833 -83.9833 68° East 164 189 5,000  Level Atlanta TRACON
Sun 06:17:58 PM 33.8833 -83.9333 90° East 165 190 5,000  Level Atlanta TRACON
Sun 06:18:58 PM 33.8833 -83.8833 90° East 168 193 5,000  Level Atlanta TRACON
Sun 06:19:58 PM 33.9000 -83.8333 68° East 168 193 5,000  Level Atlanta TRACON
Sun 06:20:58 PM 33.9167 -83.7667 73° East 169 194 5,000  Level Atlanta TRACON
Sun 06:22:04 PM 33.9333 -83.7167 68° East 166 191 5,000  Level Atlanta TRACON
Sun 06:22:58 PM 33.9333 -83.6667 90° East 164 189 5,000  Level Atlanta TRACON
Sun 06:24:03 PM 33.9500 -83.6000 73° East 166 191 5,000  Level Atlanta TRACON
Sun 06:24:58 PM 33.9667 -83.5500 68° East 168 193 5,000  Level Atlanta TRACON
Sun 06:26:04 PM 33.9667 -83.5000 90° East 166 191 5,000  Level Atlanta TRACON
Sun 06:27:04 PM 33.9833 -83.4500 68° East 169 194 5,000  Level Atlanta TRACON
Sun 06:28:04 PM 34.0000 -83.3833 73° East 166 191 5,000  Level Atlanta TRACON
Sun 06:29:03 PM 34.0167 -83.3333 68° East 167 192 5,000  Level Atlanta TRACON
Sun 06:30:20 PM 34.0214 -83.2744 84° East 175 201 5,000  Level Atlanta Center
Sun 06:31:20 PM 34.0317 -83.2242 76° East 165 190 5,000  Level Atlanta Center
Sun 06:32:20 PM 34.0436 -83.1714 75° East 165 190 5,000  Level Atlanta Center
Sun 06:33:20 PM 34.0539 -83.1161 77° East 165 190 5,000  Level Atlanta Center
Sun 06:34:20 PM 34.0681 -83.0633 72° East 165 190 5,000  Level Atlanta Center
Sun 06:35:20 PM 34.0781 -83.0081 78° East 165 190 5,000  Level Atlanta Center
Sun 06:36:20 PM 34.0919 -82.9528 73° East 165 190 5,000  Level Atlanta Center
Sun 06:37:20 PM 34.1019 -82.8972 78° East 165 190 5,000  Level Atlanta Center
Sun 06:38:20 PM 34.1244 -82.8469 62° Northeast 165 190 5,000  Level Atlanta Center
Sun 06:39:20 PM 34.1469 -82.7989 60° Northeast 165 190 5,000  Level Atlanta Center
Sun 06:40:20 PM 34.1714 -82.7508 58° Northeast 165 190 5,000  Level Atlanta Center
Sun 06:41:20 PM 34.1939 -82.7003 62° Northeast 165 190 5,000  Level Atlanta Center
Sun 06:42:20 PM 34.2183 -82.6494 60° Northeast 165 190 5,000  Level Atlanta Center
Sun 06:43:20 PM 34.2408 -82.6014 60° Northeast 165 190 5,000  Level Atlanta Center
Sun 06:44:20 PM 34.2694 -82.5558 53° Northeast 165 190 5,000  Level Atlanta Center
Sun 06:45:20 PM 34.2981 -82.5100 53° Northeast 165 190 5,000  Level Atlanta Center
Sun 06:46:20 PM 34.3247 -82.4642 55° Northeast 170 196 5,000  Level Atlanta Center
Sun 06:47:20 PM 34.3533 -82.4158 54° Northeast 170 196 5,000  Level Atlanta Center
Sun 06:48:20 PM 34.3797 -82.3700 55° Northeast 170 196 5,000  Level Atlanta Center
Sun 06:49:20 PM 34.4083 -82.3242 53° Northeast 170 196 5,000  Level Atlanta Center
Sun 06:51:00 PM 34.4237 -82.2291 62° Northeast  Level FlightAware Approximate
Sun 06:58:00 PM 34.5724 -81.8860 63° Northeast  Level FlightAware Approximate
Sun 06:59:00 PM 34.5928 -81.8364 63° Northeast  Level FlightAware Approximate
Sun 06:59:54 PM 34.7233 -81.7947 64° Northeast 186 214 5,000  Level Atlanta Center
Sun 07:00:00 PM 34.6132 -81.7867 63° Northeast  Level FlightAware Approximate
Sun 07:01:00 PM 34.6335 -81.7371 64° Northeast  Level FlightAware Approximate
Sun 07:01:01 PM 34.7597 -81.7381 52° Northeast 185 213 5,000  Level Atlanta Center
Sun 07:02:00 PM 34.6538 -81.6874 64° Northeast  Level FlightAware Approximate
Sun 07:02:02 PM 34.7881 -81.6842 57° Northeast 185 213 5,000  Level Atlanta Center
Sun 07:02:57 PM 34.8142 -81.6378 56° Northeast 186 214 5,000  Level Atlanta Center
Sun 07:03:00 PM 34.6741 -81.6377 64° Northeast  Level FlightAware Approximate
Sun 07:04:00 PM 34.6944 -81.5880 64° Northeast  Level FlightAware Approximate
Sun 07:04:10 PM 34.8528 -81.5786 51° Northeast 187 215 5,000  Level Atlanta Center
Sun 07:05:00 PM 34.7147 -81.5382 64° Northeast  Level FlightAware Approximate
Sun 07:05:11 PM 34.8872 -81.5269 51° Northeast 191 220 4,900  Level Atlanta Center
Sun 07:06:12 PM 34.9347 -81.5025 23° Northeast 182 209 5,000 52 Climbing Atlanta Center
Sun 07:07:07 PM 34.9758 -81.4811 23° Northeast 182 209 5,000  Level Atlanta Center
Sun 07:08:08 PM 35.0214 -81.4519 28° Northeast 187 215 5,000  Level Atlanta Center
Sun 07:09:08 PM 35.0708 -81.4222 26° Northeast 186 214 5,000  Level Atlanta Center
Sun 07:10:15 PM 35.1203 -81.3953 24° Northeast 186 214 5,000  Level Atlanta Center
Sun 07:11:10 PM 35.1636 -81.3736 22° Northeast 186 214 5,000  Level Atlanta Center
Sun 07:12:11 PM 35.2064 -81.3342 37° Northeast 185 213 5,000  Level Atlanta Center
Sun 07:13:06 PM 35.2433 -81.3025 35° Northeast 186 214 5,000  Level Atlanta Center
Sun 07:14:06 PM 35.2906 -81.2703 29° Northeast 184 212 5,000 -149 Level Atlanta Center
Sun 07:15:07 PM 35.3336 -81.2308 37° Northeast 182 209 4,700 -469 Descending Atlanta Center
Sun 07:16:14 PM 35.3614 -81.1764 58° Northeast 187 215 4,000 -375 Descending Atlanta Center
Sun 07:17:15 PM 35.3642 -81.1175 87° East 172 198 3,900 -393 Descending Atlanta Center
Sun 07:18:16 PM 35.3586 -81.0592 97° East 187 215 3,200 -738 Descending Atlanta Center
Sun 07:19:17 PM 35.3383 -80.9964 112° Southeast 181 208 2,400 -496 Descending Atlanta Center
Sun 07:20:17 PM 35.2961 -80.9725 155° Southeast 164 189 2,200 -446 Descending Atlanta Center
Sun 07:21:18 PM 35.2536 -80.9461 153° Southeast 169 194 1,500 -689 Descending Atlanta Center
Sun 07:23:00 PM 35.2137 -80.9491 148° Southeast  Level Estimated
Sun 07:30:00 PM 35.2137 -80.9491 148° Southeast  Level Estimated

Login

Don't have an account? Register now (free) for customized features, flight alerts, and more!